Time;durP1;ratioP1;P1;durP2;ratioP2;P2;SDS_P1;SDS_P2;PMS_P1;PMS_P2;Temp;Humidity;BMP_temperature;BMP_pressure;BME280_temperature;BME280_humidity;BME280_pressure;Samples;Min_cycle;Max_cycle;Signal;HPM_P1;HPM_P2
2021/07/01 00:01:43;;;;;;;22.88;17.63;;;16.70;99.90;;;;;;5026229;28;20083;-72
2021/07/01 00:04:09;;;;;;;25.52;18.40;;;16.70;99.90;;;;;;5028050;28;20061;-72
2021/07/01 00:06:35;;;;;;;22.75;16.52;;;16.60;99.90;;;;;;5030412;28;20064;-72
2021/07/01 00:09:00;;;;;;;26.73;19.40;;;16.70;99.90;;;;;;5029108;28;20030;-71
2021/07/01 00:11:26;;;;;;;30.92;19.45;;;16.70;99.90;;;;;;5028383;28;20041;-72
2021/07/01 00:13:52;;;;;;;26.85;18.95;;;16.70;99.90;;;;;;5024720;28;20024;-71
2021/07/01 00:16:17;;;;;;;28.98;19.50;;;16.70;99.90;;;;;;5027477;28;20022;-70
2021/07/01 00:18:43;;;;;;;28.23;19.77;;;16.60;99.90;;;;;;5027169;28;20017;-71
2021/07/01 00:21:09;;;;;;;32.65;20.75;;;16.50;99.90;;;;;;5026205;28;20040;-71
2021/07/01 00:23:34;;;;;;;32.97;19.88;;;16.60;99.90;;;;;;5029895;28;20477;-71
2021/07/01 00:26:00;;;;;;;27.38;18.58;;;16.50;99.90;;;;;;5027307;28;20038;-71
2021/07/01 00:28:26;;;;;;;26.48;18.38;;;16.50;99.90;;;;;;5026527;28;20096;-71
2021/07/01 00:30:51;;;;;;;28.05;18.50;;;16.40;99.90;;;;;;5021414;28;20068;-71
2021/07/01 00:33:17;;;;;;;24.90;17.92;;;16.60;99.90;;;;;;5027974;28;20466;-70
2021/07/01 00:35:43;;;;;;;25.10;17.30;;;16.60;99.90;;;;;;5026910;28;20038;-70
2021/07/01 00:38:08;;;;;;;26.10;17.33;;;16.50;99.90;;;;;;5025481;28;20481;-70
2021/07/01 00:40:34;;;;;;;29.50;19.30;;;16.50;99.90;;;;;;5026305;28;20018;-71
2021/07/01 00:42:59;;;;;;;21.83;17.58;;;16.40;99.90;;;;;;5026282;28;20464;-72
2021/07/01 00:45:25;;;;;;;29.95;18.90;;;16.30;99.90;;;;;;5026699;28;20035;-74
2021/07/01 00:47:51;;;;;;;31.98;19.25;;;16.40;99.90;;;;;;5029655;28;20092;-74
2021/07/01 00:50:17;;;;;;;24.90;19.00;;;16.40;99.90;;;;;;5026800;28;20037;-74
2021/07/01 00:52:43;;;;;;;28.80;19.58;;;16.40;99.90;;;;;;5023171;28;20433;-75
2021/07/01 00:55:10;;;;;;;30.90;19.52;;;16.40;99.90;;;;;;5029927;28;20045;-74
2021/07/01 00:57:37;;;;;;;30.45;19.90;;;16.40;99.90;;;;;;5028836;28;20551;-73
2021/07/01 01:00:21;;;;;;;29.75;17.75;;;16.50;99.90;;;;;;5021140;28;20032;-72
2021/07/01 01:02:47;;;;;;;31.20;20.08;;;16.40;99.90;;;;;;5035863;28;20021;-72
2021/07/01 01:05:13;;;;;;;33.30;19.92;;;16.40;99.90;;;;;;5026856;28;20052;-72
2021/07/01 01:07:39;;;;;;;37.05;22.40;;;16.50;99.90;;;;;;5023135;28;20071;-72
2021/07/01 01:10:07;;;;;;;35.17;20.23;;;16.50;99.90;;;;;;5040507;28;20029;-70
2021/07/01 01:12:32;;;;;;;46.28;23.83;;;16.50;99.90;;;;;;5025455;28;20017;-71
2021/07/01 01:14:58;;;;;;;41.85;23.25;;;16.50;99.90;;;;;;5029336;28;20500;-71
2021/07/01 01:17:23;;;;;;;39.72;22.88;;;16.50;99.90;;;;;;5026992;28;20052;-71
2021/07/01 01:19:49;;;;;;;49.50;23.70;;;16.50;99.90;;;;;;5027964;28;20021;-71
2021/07/01 01:22:15;;;;;;;44.83;22.77;;;16.50;99.90;;;;;;5019335;28;20022;-71
2021/07/01 01:24:40;;;;;;;43.40;22.40;;;16.50;99.90;;;;;;5027431;28;20029;-72
2021/07/01 01:27:06;;;;;;;46.42;21.20;;;16.40;99.90;;;;;;5028224;28;20035;-71
2021/07/01 01:29:31;;;;;;;37.22;20.77;;;16.40;99.90;;;;;;5030504;28;20029;-72
2021/07/01 01:31:57;;;;;;;34.28;20.20;;;16.40;99.90;;;;;;5028654;28;20047;-72
2021/07/01 01:34:22;;;;;;;38.10;19.60;;;16.40;99.90;;;;;;5027880;28;20037;-71
2021/07/01 01:36:48;;;;;;;35.88;20.25;;;16.20;99.90;;;;;;5027592;28;20029;-72
2021/07/01 01:39:14;;;;;;;41.30;20.50;;;16.20;99.90;;;;;;5025797;28;20408;-72
2021/07/01 01:41:40;;;;;;;36.10;19.45;;;16.20;99.90;;;;;;5028559;28;20480;-72
2021/07/01 01:44:05;;;;;;;39.70;18.35;;;16.20;99.90;;;;;;5026054;28;20032;-74
2021/07/01 01:46:37;;;;;;;35.05;18.65;;;16.10;99.90;;;;;;5030247;28;20029;-74
2021/07/01 01:49:04;;;;;;;27.10;17.88;;;16.20;99.90;;;;;;5029082;28;20533;-72
2021/07/01 01:51:30;;;;;;;39.33;19.63;;;16.20;99.90;;;;;;5027347;28;20041;-72
2021/07/01 01:53:56;;;;;;;33.85;18.70;;;16.20;99.90;;;;;;5029777;28;20022;-73
2021/07/01 01:56:21;;;;;;;39.47;22.05;;;16.20;99.90;;;;;;5029485;28;20022;-73
2021/07/01 01:58:47;;;;;;;39.95;18.83;;;16.20;99.90;;;;;;5028069;28;20385;-72
2021/07/01 02:01:13;;;;;;;37.13;19.05;;;16.20;99.90;;;;;;5021053;28;20111;-72
2021/07/01 02:03:38;;;;;;;34.03;18.35;;;16.20;99.90;;;;;;5028157;28;20068;-71
2021/07/01 02:06:04;;;;;;;35.78;18.95;;;16.20;99.90;;;;;;5025716;28;20041;-71
2021/07/01 02:08:32;;;;;;;36.63;18.70;;;16.10;99.90;;;;;;5029451;28;20028;-71
2021/07/01 02:10:58;;;;;;;43.55;19.92;;;16.20;99.90;;;;;;5029512;28;20037;-71
2021/07/01 02:13:23;;;;;;;35.08;18.70;;;16.10;99.90;;;;;;5025368;28;20500;-72
2021/07/01 02:15:49;;;;;;;30.90;18.13;;;16.20;99.90;;;;;;5024841;28;20022;-71
2021/07/01 02:18:14;;;;;;;29.10;18.05;;;16.20;99.90;;;;;;5029793;28;20084;-70
2021/07/01 02:20:40;;;;;;;43.95;20.55;;;16.20;99.90;;;;;;5029673;28;20489;-72
2021/07/01 02:23:06;;;;;;;36.53;18.77;;;16.30;99.90;;;;;;5032757;28;20044;-74
2021/07/01 02:25:33;;;;;;;37.10;18.35;;;16.20;99.90;;;;;;5033361;28;20031;-71
2021/07/01 02:27:59;;;;;;;37.50;18.83;;;16.30;99.90;;;;;;5025993;28;20026;-71
2021/07/01 02:30:25;;;;;;;40.00;18.95;;;16.30;99.90;;;;;;5030341;28;20037;-71
2021/07/01 02:32:51;;;;;;;32.72;17.13;;;16.30;99.90;;;;;;5031844;28;20057;-71
2021/07/01 02:35:16;;;;;;;37.88;18.13;;;16.40;99.90;;;;;;5029398;28;20068;-71
2021/07/01 02:37:43;;;;;;;40.47;18.83;;;16.30;99.90;;;;;;5029644;28;20055;-70
2021/07/01 02:40:12;;;;;;;37.75;18.63;;;16.40;99.90;;;;;;5032647;28;20044;-72
2021/07/01 02:42:39;;;;;;;34.67;16.83;;;16.40;99.90;;;;;;5032589;28;21009;-71
2021/07/01 02:45:06;;;;;;;41.15;19.27;;;16.40;99.90;;;;;;5031639;28;20029;-71
2021/07/01 02:47:32;;;;;;;39.92;19.17;;;16.40;99.90;;;;;;5028389;28;20029;-71
2021/07/01 02:49:57;;;;;;;41.03;20.30;;;16.40;99.90;;;;;;5034403;28;20032;-71
2021/07/01 02:52:23;;;;;;;33.90;18.50;;;16.40;99.90;;;;;;5027861;28;20034;-71
2021/07/01 02:54:48;;;;;;;37.70;20.20;;;16.40;99.90;;;;;;5032462;28;20033;-71
2021/07/01 02:57:14;;;;;;;38.58;18.85;;;16.40;99.90;;;;;;5046777;28;20029;-72
2021/07/01 02:59:40;;;;;;;38.33;18.00;;;16.40;99.90;;;;;;5029008;28;20533;-71
2021/07/01 03:02:06;;;;;;;36.45;19.02;;;16.50;99.90;;;;;;5033026;28;20389;-72
2021/07/01 03:04:31;;;;;;;36.55;18.20;;;16.50;99.90;;;;;;5026358;28;20030;-71
2021/07/01 03:06:57;;;;;;;39.92;18.52;;;16.50;99.90;;;;;;5031813;28;20030;-72
2021/07/01 03:09:22;;;;;;;38.08;17.73;;;16.40;99.90;;;;;;5031545;28;20163;-71
2021/07/01 03:11:48;;;;;;;36.78;18.38;;;16.40;99.90;;;;;;5030118;28;20048;-71
2021/07/01 03:14:13;;;;;;;30.60;16.60;;;16.50;99.90;;;;;;5028017;28;20032;-71
2021/07/01 03:16:39;;;;;;;31.77;15.60;;;16.40;99.90;;;;;;5031391;28;20106;-72
2021/07/01 03:19:05;;;;;;;39.78;18.48;;;16.40;99.90;;;;;;5030806;28;20053;-72
2021/07/01 03:21:30;;;;;;;34.60;17.15;;;16.40;99.90;;;;;;5042527;28;20072;-72
2021/07/01 03:23:56;;;;;;;28.33;15.65;;;16.40;99.90;;;;;;5030927;28;20397;-72
2021/07/01 03:26:21;;;;;;;31.35;15.40;;;16.40;99.90;;;;;;5027139;28;20109;-71
2021/07/01 03:28:47;;;;;;;34.38;16.98;;;16.30;99.90;;;;;;5029791;28;20055;-72
2021/07/01 03:31:13;;;;;;;24.98;14.68;;;16.30;99.90;;;;;;5046097;28;20044;-72
2021/07/01 03:33:39;;;;;;;32.55;14.57;;;16.30;99.90;;;;;;5031570;28;20029;-72
2021/07/01 03:36:05;;;;;;;31.67;14.20;;;16.20;99.90;;;;;;5032108;28;20076;-72
2021/07/01 03:38:32;;;;;;;41.78;16.00;;;16.20;99.90;;;;;;5026318;28;20478;-72
2021/07/01 03:40:58;;;;;;;25.67;13.57;;;16.30;99.90;;;;;;5031282;28;20108;-72
2021/07/01 03:43:23;;;;;;;35.97;14.48;;;16.30;99.90;;;;;;5027168;28;20112;-72
2021/07/01 03:45:49;;;;;;;31.88;14.45;;;16.20;99.90;;;;;;5029983;28;20043;-72
2021/07/01 03:48:14;;;;;;;33.83;14.02;;;16.20;99.90;;;;;;5031424;28;20026;-72
2021/07/01 03:50:41;;;;;;;28.77;12.98;;;16.30;99.90;;;;;;5028332;28;20075;-72
2021/07/01 03:53:07;;;;;;;31.52;13.27;;;16.20;99.90;;;;;;5026803;28;20485;-72
2021/07/01 03:55:32;;;;;;;23.42;13.07;;;16.10;99.90;;;;;;5032835;28;20064;-71
2021/07/01 03:57:58;;;;;;;26.45;13.52;;;16.10;99.90;;;;;;5029892;28;20432;-73
2021/07/01 04:00:24;;;;;;;28.20;12.85;;;16.10;99.90;;;;;;5026145;28;20025;-73
2021/07/01 04:02:50;;;;;;;30.83;13.43;;;16.10;99.90;;;;;;5029375;28;20068;-73
2021/07/01 04:05:15;;;;;;;33.17;13.25;;;15.90;99.90;;;;;;5029545;28;20033;-73
2021/07/01 04:07:42;;;;;;;25.83;11.80;;;16.00;99.90;;;;;;5030946;28;20037;-74
2021/07/01 04:10:13;;;;;;;28.17;12.85;;;16.00;99.90;;;;;;5030191;28;20037;-73
2021/07/01 04:12:39;;;;;;;28.73;12.40;;;16.00;99.90;;;;;;5027704;28;20017;-73
2021/07/01 04:15:06;;;;;;;25.45;13.07;;;16.00;99.90;;;;;;5042353;28;20385;-73
2021/07/01 04:17:31;;;;;;;32.40;12.38;;;15.80;99.90;;;;;;5030945;28;20405;-73
2021/07/01 04:19:57;;;;;;;30.92;12.65;;;15.90;99.90;;;;;;5026278;28;20033;-72
2021/07/01 04:22:24;;;;;;;31.73;14.35;;;15.90;99.90;;;;;;5026861;28;20025;-71
2021/07/01 04:24:50;;;;;;;27.17;13.02;;;16.00;99.90;;;;;;5030959;28;20057;-71
2021/07/01 04:27:16;;;;;;;29.30;12.57;;;15.90;99.90;;;;;;5031822;28;20633;-70
2021/07/01 04:29:41;;;;;;;30.13;13.30;;;15.90;99.90;;;;;;5032596;28;20025;-73
2021/07/01 04:32:07;;;;;;;27.42;13.20;;;16.00;99.90;;;;;;5024087;28;20041;-73
2021/07/01 04:34:33;;;;;;;28.83;13.23;;;16.00;99.90;;;;;;5023810;28;20481;-72
2021/07/01 04:36:59;;;;;;;35.83;13.25;;;15.90;99.90;;;;;;5030965;28;20032;-72
2021/07/01 04:39:25;;;;;;;33.03;13.55;;;16.00;99.90;;;;;;5030150;28;20101;-72
2021/07/01 04:41:50;;;;;;;27.27;12.68;;;16.00;99.90;;;;;;5030789;28;20045;-72
2021/07/01 04:44:16;;;;;;;25.73;13.50;;;16.00;99.90;;;;;;5027560;28;20637;-71
2021/07/01 04:46:41;;;;;;;29.50;12.57;;;15.90;99.90;;;;;;5030205;28;20009;-72
2021/07/01 04:49:07;;;;;;;23.75;12.70;;;15.90;99.90;;;;;;5030047;28;20034;-71
2021/07/01 04:51:32;;;;;;;29.00;13.23;;;15.90;99.90;;;;;;5026758;28;20061;-71
2021/07/01 04:53:58;;;;;;;31.38;13.05;;;15.90;99.90;;;;;;5027341;28;20481;-71
2021/07/01 04:56:24;;;;;;;28.17;13.90;;;15.90;99.90;;;;;;5032190;28;20064;-71
2021/07/01 04:58:49;;;;;;;25.85;13.57;;;16.00;99.90;;;;;;5022541;28;20488;-71
2021/07/01 05:01:15;;;;;;;28.90;13.18;;;16.00;99.90;;;;;;5030386;28;20370;-72
2021/07/01 05:03:41;;;;;;;31.52;13.55;;;16.00;99.90;;;;;;5027571;28;20116;-72
2021/07/01 05:06:06;;;;;;;31.25;14.07;;;16.00;99.90;;;;;;5026805;28;20037;-73
2021/07/01 05:08:32;;;;;;;28.48;12.98;;;16.00;99.90;;;;;;5029365;28;20436;-72
2021/07/01 05:10:57;;;;;;;30.90;13.98;;;16.00;99.90;;;;;;5031496;28;20026;-73
2021/07/01 05:13:23;;;;;;;32.58;13.35;;;16.10;99.90;;;;;;5025469;28;20063;-73
2021/07/01 05:15:49;;;;;;;32.88;14.43;;;16.10;99.90;;;;;;5028302;28;20053;-72
2021/07/01 05:18:15;;;;;;;27.55;13.68;;;16.10;99.90;;;;;;5029361;28;20049;-72
2021/07/01 05:20:43;;;;;;;27.65;13.02;;;16.10;99.90;;;;;;5030032;28;20094;-71
2021/07/01 05:23:08;;;;;;;28.05;12.70;;;16.00;99.90;;;;;;5031202;28;20615;-71
2021/07/01 05:25:34;;;;;;;20.38;11.73;;;16.00;99.90;;;;;;5031711;28;20100;-71
2021/07/01 05:28:07;;;;;;;23.85;11.60;;;16.00;99.90;;;;;;5025425;28;20025;-72
2021/07/01 05:30:32;;;;;;;;;;;15.90;99.90;;;;;;5029251;28;20133;-72
2021/07/01 05:32:58;;;;;;;25.35;12.55;;;15.90;99.90;;;;;;5030061;28;20016;-72
2021/07/01 05:35:23;;;;;;;33.30;12.73;;;16.10;99.90;;;;;;5029702;28;20389;-72
2021/07/01 05:37:49;;;;;;;26.60;13.02;;;16.10;99.90;;;;;;5026755;28;20087;-72
2021/07/01 05:40:17;;;;;;;27.85;13.57;;;16.10;99.90;;;;;;5030187;28;20022;-72
2021/07/01 05:42:43;;;;;;;25.27;12.50;;;15.90;99.90;;;;;;5027746;28;20041;-72
2021/07/01 05:45:09;;;;;;;26.38;12.45;;;16.00;99.90;;;;;;5025462;28;20468;-72
2021/07/01 05:47:36;;;;;;;27.40;12.25;;;15.90;99.90;;;;;;5029260;28;20034;-72
2021/07/01 05:50:03;;;;;;;30.00;12.93;;;15.90;99.90;;;;;;5024328;28;20103;-71
2021/07/01 05:52:31;;;;;;;27.40;11.82;;;15.90;99.90;;;;;;5027022;28;20486;-71
2021/07/01 05:54:58;;;;;;;22.55;12.57;;;15.90;99.90;;;;;;5034059;28;20049;-71
2021/07/01 05:57:25;;;;;;;31.42;12.57;;;16.00;99.90;;;;;;5032747;28;20485;-72
2021/07/01 05:59:51;;;;;;;26.10;12.30;;;15.90;99.90;;;;;;5035142;28;20028;-72
2021/07/01 06:02:17;;;;;;;33.88;12.48;;;16.00;99.90;;;;;;5031742;28;20021;-72
2021/07/01 06:04:43;;;;;;;25.85;12.00;;;16.00;99.90;;;;;;5034980;28;20497;-72
2021/07/01 06:07:09;;;;;;;28.10;11.93;;;16.00;99.90;;;;;;5027536;28;20063;-71
2021/07/01 06:09:38;;;;;;;21.50;10.27;;;16.00;99.90;;;;;;5027905;28;20022;-71
2021/07/01 06:12:04;;;;;;;23.83;11.18;;;16.00;99.90;;;;;;5035299;28;20037;-72
2021/07/01 06:14:30;;;;;;;28.52;11.85;;;15.90;99.90;;;;;;5028465;28;20022;-71
2021/07/01 06:16:58;;;;;;;25.98;12.68;;;16.00;99.90;;;;;;5030167;28;20100;-71
2021/07/01 06:19:24;;;;;;;21.90;11.13;;;16.10;99.90;;;;;;5028259;28;20021;-72
2021/07/01 06:21:51;;;;;;;28.63;12.30;;;16.20;99.90;;;;;;5014048;28;20063;-71
2021/07/01 06:24:17;;;;;;;30.15;12.02;;;16.20;99.90;;;;;;5032508;28;20036;-72
2021/07/01 06:26:45;;;;;;;24.70;11.48;;;16.30;99.90;;;;;;5029871;28;20079;-72
2021/07/01 06:29:12;;;;;;;27.42;12.00;;;16.30;99.90;;;;;;5032254;28;20037;-73
2021/07/01 06:31:39;;;;;;;22.58;10.57;;;16.30;99.90;;;;;;5045570;28;20041;-71
2021/07/01 06:34:04;;;;;;;21.17;10.48;;;16.30;99.90;;;;;;5027509;28;20499;-73
2021/07/01 06:36:35;;;;;;;22.05;10.70;;;16.30;99.90;;;;;;5033242;28;20108;-72
2021/07/01 06:39:04;;;;;;;19.98;10.30;;;16.40;99.90;;;;;;5032927;28;20029;-72
2021/07/01 06:41:31;;;;;;;21.98;11.02;;;16.40;99.90;;;;;;5032695;28;20041;-72
2021/07/01 06:43:57;;;;;;;18.88;9.05;;;16.40;99.90;;;;;;5032294;28;20022;-73
2021/07/01 06:46:29;;;;;;;19.42;10.15;;;16.30;99.90;;;;;;5033680;28;20040;-73
2021/07/01 06:48:55;;;;;;;;;;;16.30;99.90;;;;;;5031752;28;20416;-73
2021/07/01 06:51:21;;;;;;;25.30;10.00;;;16.30;99.90;;;;;;5032148;28;19917;-72
2021/07/01 06:53:48;;;;;;;24.77;10.05;;;16.30;99.90;;;;;;5029200;28;20090;-73
2021/07/01 06:56:14;;;;;;;19.42;9.70;;;16.20;99.90;;;;;;5030970;28;20112;-73
2021/07/01 06:58:43;;;;;;;20.23;10.23;;;16.20;99.90;;;;;;5028926;28;20133;-72
2021/07/01 07:01:10;;;;;;;22.60;10.40;;;16.30;99.90;;;;;;5027338;28;20029;-73
2021/07/01 07:03:36;;;;;;;19.30;9.13;;;16.30;99.90;;;;;;5004352;28;20017;-73
2021/07/01 07:06:02;;;;;;;18.23;9.48;;;16.30;99.90;;;;;;5028931;28;20061;-73
2021/07/01 07:08:29;;;;;;;21.35;9.63;;;16.40;99.90;;;;;;5026641;28;20413;-73
2021/07/01 07:10:54;;;;;;;23.60;10.23;;;16.50;99.90;;;;;;5032570;28;20041;-73
2021/07/01 07:13:24;;;;;;;18.20;9.57;;;16.60;99.90;;;;;;5027323;28;20021;-72
2021/07/01 07:15:53;;;;;;;21.13;10.05;;;16.50;99.90;;;;;;5031369;28;20034;-73
2021/07/01 07:18:27;;;;;;;17.77;10.40;;;16.60;99.90;;;;;;5027418;28;20033;-73
2021/07/01 07:20:55;;;;;;;18.20;9.82;;;16.70;99.90;;;;;;5030334;28;20024;-73
2021/07/01 07:23:31;;;;;;;18.10;8.27;;;16.80;99.90;;;;;;5031239;28;20029;-73
2021/07/01 07:25:58;;;;;;;25.45;9.02;;;16.80;99.90;;;;;;5031610;28;20021;-73
2021/07/01 07:28:26;;;;;;;17.80;9.05;;;16.70;99.90;;;;;;5029321;28;20041;-73
2021/07/01 07:30:55;;;;;;;23.75;9.32;;;16.70;99.90;;;;;;5030575;28;20473;-73
2021/07/01 07:33:24;;;;;;;22.27;9.07;;;16.70;99.90;;;;;;5024848;28;20385;-73
2021/07/01 07:35:50;;;;;;;20.60;8.82;;;16.60;99.90;;;;;;5031130;28;20063;-73
2021/07/01 07:38:17;;;;;;;19.15;8.32;;;16.70;99.90;;;;;;5030553;28;20107;-73
2021/07/01 07:40:43;;;;;;;17.08;7.55;;;16.60;99.90;;;;;;5029605;28;20163;-73
2021/07/01 07:43:15;;;;;;;22.35;8.60;;;16.70;99.90;;;;;;5027783;28;20109;-73
2021/07/01 07:45:41;;;;;;;28.65;9.07;;;16.80;99.90;;;;;;5026958;28;20485;-73
2021/07/01 07:48:07;;;;;;;18.83;9.23;;;16.90;99.90;;;;;;5029960;28;20147;-73
2021/07/01 07:50:36;;;;;;;16.15;8.23;;;16.90;99.90;;;;;;5027975;28;20504;-73
2021/07/01 07:53:04;;;;;;;18.58;8.65;;;16.90;99.90;;;;;;5028334;28;20022;-73
2021/07/01 07:55:30;;;;;;;18.73;7.65;;;16.90;99.90;;;;;;5030176;28;20025;-73
2021/07/01 07:58:00;;;;;;;13.48;7.95;;;16.80;99.90;;;;;;5030271;28;20401;-73
2021/07/01 08:00:27;;;;;;;21.20;8.82;;;16.80;99.90;;;;;;5029210;28;20056;-73
2021/07/01 08:02:57;;;;;;;18.08;8.63;;;16.80;99.90;;;;;;5030603;28;20045;-73
2021/07/01 08:05:27;;;;;;;17.38;8.10;;;16.80;99.90;;;;;;5028962;28;20036;-73
2021/07/01 08:07:54;;;;;;;20.05;8.38;;;16.80;99.90;;;;;;5029162;28;20495;-73
2021/07/01 08:10:24;;;;;;;17.88;7.85;;;16.80;99.90;;;;;;5029094;28;20039;-73
2021/07/01 08:12:51;;;;;;;19.58;8.52;;;16.80;99.90;;;;;;5028638;28;20037;-73
2021/07/01 08:15:19;;;;;;;21.55;8.57;;;16.80;99.90;;;;;;5030910;28;20022;-73
2021/07/01 08:17:52;;;;;;;19.48;8.88;;;16.90;99.90;;;;;;5029766;28;20032;-73
2021/07/01 08:20:20;;;;;;;21.38;7.80;;;17.00;99.90;;;;;;5028403;28;20031;-73
2021/07/01 08:22:48;;;;;;;18.75;8.05;;;16.90;99.90;;;;;;5029890;28;20097;-73
2021/07/01 08:25:14;;;;;;;24.90;9.15;;;16.80;99.90;;;;;;5031484;28;20025;-73
2021/07/01 08:27:42;;;;;;;14.98;8.10;;;16.80;99.90;;;;;;5026584;28;20021;-72
2021/07/01 08:30:08;;;;;;;13.48;8.15;;;16.80;99.90;;;;;;5028342;28;20025;-73
2021/07/01 08:32:36;;;;;;;16.70;8.00;;;16.70;99.90;;;;;;5028807;28;20036;-73
2021/07/01 08:35:03;;;;;;;16.17;7.72;;;16.70;99.90;;;;;;5036066;28;20041;-72
2021/07/01 08:37:30;;;;;;;18.50;9.30;;;16.60;99.90;;;;;;5027320;28;20029;-73
2021/07/01 08:40:03;;;;;;;13.00;7.45;;;16.60;99.90;;;;;;5029349;28;20454;-73
2021/07/01 08:42:36;;;;;;;24.98;9.65;;;16.70;99.90;;;;;;5026445;28;20094;-72
2021/07/01 08:45:07;;;;;;;12.88;8.43;;;16.80;99.90;;;;;;5027284;28;20068;-72
2021/07/01 08:47:34;;;;;;;19.00;7.40;;;16.80;99.90;;;;;;5028786;28;20018;-72
2021/07/01 08:50:04;;;;;;;19.05;7.70;;;16.80;99.90;;;;;;5029948;28;20104;-73
2021/07/01 08:52:32;;;;;;;17.45;7.55;;;16.70;99.90;;;;;;5030808;28;20473;-73
2021/07/01 08:55:05;;;;;;;17.25;7.38;;;16.80;99.90;;;;;;5029184;28;20017;-73
2021/07/01 08:57:35;;;;;;;19.10;8.38;;;16.70;99.90;;;;;;5029334;28;20025;-73
2021/07/01 09:00:13;;;;;;;10.73;6.97;;;16.70;99.90;;;;;;5029434;28;20041;-73
2021/07/01 09:02:45;;;;;;;14.68;7.10;;;16.50;99.90;;;;;;5027980;28;20029;-73
2021/07/01 09:05:17;;;;;;;16.65;7.28;;;16.60;99.90;;;;;;5025174;28;20025;-73
2021/07/01 09:07:51;;;;;;;15.43;6.85;;;16.60;99.90;;;;;;5026722;28;20029;-73
2021/07/01 09:10:17;;;;;;;17.83;7.40;;;16.60;99.90;;;;;;5026721;28;20029;-73
2021/07/01 09:12:55;;;;;;;14.43;6.55;;;16.70;99.90;;;;;;5024095;28;20080;-73
2021/07/01 09:15:22;;;;;;;16.02;7.10;;;16.70;99.90;;;;;;5028348;28;20049;-72
2021/07/01 09:17:48;;;;;;;12.98;7.38;;;16.80;99.90;;;;;;5029706;28;20064;-73
2021/07/01 09:20:19;;;;;;;17.95;8.27;;;16.80;99.90;;;;;;5030129;28;20033;-73
2021/07/01 09:22:50;;;;;;;16.33;7.40;;;16.80;99.90;;;;;;5026519;28;20017;-73
2021/07/01 09:25:17;;;;;;;19.65;7.30;;;16.80;99.90;;;;;;5028462;28;20053;-72
2021/07/01 09:27:46;;;;;;;25.50;7.53;;;16.80;99.90;;;;;;5028261;28;20492;-73
2021/07/01 09:30:16;;;;;;;17.67;6.90;;;16.80;99.90;;;;;;5026701;28;20105;-73
2021/07/01 09:32:43;;;;;;;19.33;7.63;;;16.80;99.90;;;;;;5028848;28;20017;-73
2021/07/01 09:35:11;;;;;;;13.45;7.68;;;16.80;99.90;;;;;;5029400;28;20030;-72
2021/07/01 09:37:45;;;;;;;17.92;8.23;;;16.80;99.90;;;;;;5028985;28;20028;-73
2021/07/01 09:40:14;;;;;;;23.70;8.13;;;16.90;99.90;;;;;;5028612;28;20029;-73
2021/07/01 09:42:40;;;;;;;18.50;8.32;;;17.00;99.90;;;;;;5030526;28;20021;-72
2021/07/01 09:45:10;;;;;;;17.83;8.18;;;16.90;99.90;;;;;;5027525;28;20096;-73
2021/07/01 09:47:38;;;;;;;16.55;8.40;;;16.90;99.90;;;;;;5028217;28;20017;-72
2021/07/01 09:50:06;;;;;;;14.40;7.75;;;16.90;99.90;;;;;;5031541;28;20056;-73
2021/07/01 09:52:34;;;;;;;24.08;8.75;;;17.00;99.90;;;;;;5032384;28;20108;-72
2021/07/01 09:55:02;;;;;;;19.02;8.27;;;17.00;99.90;;;;;;5029231;28;20469;-74
2021/07/01 09:57:31;;;;;;;15.25;8.48;;;17.10;99.90;;;;;;5031572;28;20025;-72
2021/07/01 09:59:59;;;;;;;21.58;7.60;;;17.10;99.90;;;;;;5024525;28;20083;-73
2021/07/01 10:02:25;;;;;;;15.65;8.25;;;17.20;99.90;;;;;;5024829;28;20462;-72
2021/07/01 10:04:51;;;;;;;21.40;8.35;;;17.20;99.90;;;;;;5029708;28;20041;-73
2021/07/01 10:07:22;;;;;;;14.57;7.90;;;17.30;99.90;;;;;;5031230;28;20030;-73
2021/07/01 10:09:56;;;;;;;14.27;8.05;;;17.30;99.90;;;;;;5031833;28;20018;-73
2021/07/01 10:12:25;;;;;;;17.58;7.47;;;17.30;99.90;;;;;;5032312;28;20034;-73
2021/07/01 10:14:56;;;;;;;13.15;6.93;;;17.40;99.90;;;;;;5029910;28;20068;-73
2021/07/01 10:17:22;;;;;;;20.85;7.97;;;17.40;99.90;;;;;;4993657;28;1085909;-72
2021/07/01 10:19:49;;;;;;;18.75;7.53;;;17.40;99.90;;;;;;5031674;28;20021;-73
2021/07/01 10:22:18;;;;;;;16.05;8.15;;;17.30;99.90;;;;;;5032595;28;20030;-72
2021/07/01 10:24:49;;;;;;;14.85;6.50;;;17.10;99.90;;;;;;5028660;28;20029;-72
2021/07/01 10:27:33;;;;;;;15.57;6.72;;;17.20;99.90;;;;;;5030739;28;20026;-74
2021/07/01 10:30:01;;;;;;;23.23;6.93;;;17.20;99.90;;;;;;5030844;28;20072;-73
2021/07/01 10:32:45;;;;;;;13.63;7.47;;;17.30;99.90;;;;;;5032166;28;20038;-72
2021/07/01 10:35:46;;;;;;;9.57;6.45;;;17.10;99.90;;;;;;5046912;28;20018;-72
2021/07/01 10:38:13;;;;;;;17.77;6.97;;;17.00;99.90;;;;;;5028186;28;20018;-72
2021/07/01 10:40:40;;;;;;;23.10;7.65;;;17.00;99.90;;;;;;5027158;28;20109;-72
2021/07/01 10:43:07;;;;;;;15.77;7.78;;;17.00;99.90;;;;;;5032463;28;20037;-72
2021/07/01 10:45:36;;;;;;;13.40;7.20;;;17.10;99.90;;;;;;5031039;28;20419;-72
2021/07/01 10:48:17;;;;;;;11.60;6.47;;;17.10;99.90;;;;;;5032244;28;20048;-73
2021/07/01 10:50:45;;;;;;;16.45;7.82;;;16.90;99.90;;;;;;5026435;28;20052;-73
2021/07/01 10:53:27;;;;;;;17.50;7.47;;;17.00;99.90;;;;;;5041501;28;20458;-72
2021/07/01 10:55:54;;;;;;;15.52;8.02;;;17.00;99.90;;;;;;5031527;28;20025;-72
2021/07/01 10:58:27;;;;;;;14.05;7.18;;;17.00;99.90;;;;;;5031006;28;20035;-73
2021/07/01 11:00:53;;;;;;;12.52;6.43;;;16.90;99.90;;;;;;5031199;28;20036;-73
2021/07/01 11:03:25;;;;;;;15.82;8.05;;;17.00;99.90;;;;;;5031872;28;20100;-73
2021/07/01 11:05:52;;;;;;;19.08;8.27;;;16.80;99.90;;;;;;5028780;28;20030;-73
2021/07/01 11:08:26;;;;;;;12.93;8.82;;;16.90;99.90;;;;;;5028233;28;20037;-72
2021/07/01 11:10:56;;;;;;;14.25;9.18;;;16.90;99.90;;;;;;5040890;28;20088;-72
2021/07/01 11:13:26;;;;;;;14.57;10.20;;;16.90;99.90;;;;;;5030746;28;20109;-73
2021/07/01 11:16:03;;;;;;;18.77;11.25;;;17.00;99.90;;;;;;5028659;28;20025;-72
2021/07/01 11:18:44;;;;;;;16.23;11.25;;;17.00;99.90;;;;;;5029072;28;20033;-73
2021/07/01 11:21:11;;;;;;;16.38;10.88;;;17.10;99.90;;;;;;5041489;28;20389;-72
2021/07/01 11:23:37;;;;;;;16.73;11.32;;;17.00;99.90;;;;;;5026808;28;20017;-72
2021/07/01 11:26:20;;;;;;;16.10;11.07;;;17.00;99.90;;;;;;5031079;28;20025;-72
2021/07/01 11:28:46;;;;;;;18.27;11.88;;;17.00;99.90;;;;;;5026211;28;20363;-72
2021/07/01 11:31:12;;;;;;;16.30;12.05;;;17.00;99.90;;;;;;5027670;28;20048;-72
2021/07/01 11:33:37;;;;;;;25.17;13.48;;;17.00;99.90;;;;;;5028339;28;20075;-72
2021/07/01 11:36:16;;;;;;;21.58;13.55;;;17.10;99.90;;;;;;5031024;28;20041;-72
2021/07/01 11:38:43;;;;;;;20.45;12.77;;;17.00;99.90;;;;;;5030506;28;20036;-72
2021/07/01 11:41:09;;;;;;;23.95;14.07;;;17.00;99.90;;;;;;5031517;28;20033;-72
2021/07/01 11:43:37;;;;;;;23.48;12.95;;;17.00;99.90;;;;;;5031132;28;20022;-72
2021/07/01 11:46:04;;;;;;;22.98;13.05;;;17.10;99.90;;;;;;5028375;28;20041;-72
2021/07/01 11:48:30;;;;;;;16.80;12.68;;;17.10;99.90;;;;;;5030272;28;20024;-72
2021/07/01 11:50:58;;;;;;;18.55;11.80;;;17.10;99.90;;;;;;5029850;28;20029;-73
2021/07/01 11:53:25;;;;;;;22.27;12.95;;;17.10;99.90;;;;;;5028062;28;20560;-72
2021/07/01 11:55:57;;;;;;;18.60;11.43;;;17.20;99.90;;;;;;5029645;28;20064;-72
2021/07/01 11:58:22;;;;;;;16.42;10.52;;;17.10;99.90;;;;;;5028575;28;20029;-73
2021/07/01 12:00:48;;;;;;;20.15;10.68;;;17.20;99.90;;;;;;5029395;28;20500;-74
2021/07/01 12:03:14;;;;;;;25.13;9.98;;;17.20;99.90;;;;;;5025709;28;20453;-75
2021/07/01 12:05:45;;;;;;;18.10;10.75;;;17.20;99.90;;;;;;5029490;28;20041;-71
2021/07/01 12:08:12;;;;;;;20.33;10.18;;;17.10;99.90;;;;;;5028196;28;20060;-75
2021/07/01 12:10:38;;;;;;;17.95;10.77;;;17.10;99.90;;;;;;5029681;28;20068;-75
2021/07/01 12:13:33;;;;;;;18.38;9.27;;;17.10;99.90;;;;;;5026560;28;20026;-71
2021/07/01 12:16:09;;;;;;;16.48;9.75;;;17.20;99.90;;;;;;5024141;28;20063;-71
2021/07/01 12:18:44;;;;;;;19.10;10.48;;;17.20;99.90;;;;;;5040977;28;20029;-70
2021/07/01 12:21:14;;;;;;;21.50;11.45;;;17.30;99.90;;;;;;5025095;28;20080;-72
2021/07/01 12:24:04;;;;;;;16.88;10.45;;;17.20;99.90;;;;;;5028026;28;20551;-75
2021/07/01 12:26:42;;;;;;;21.42;11.30;;;17.10;99.90;;;;;;5025234;28;20045;-75
2021/07/01 12:29:20;;;;;;;19.23;11.50;;;17.10;99.90;;;;;;5026412;28;20029;-74
2021/07/01 12:31:46;;;;;;;20.85;11.93;;;17.10;99.90;;;;;;5029680;28;20029;-69
2021/07/01 12:34:19;;;;;;;24.42;12.02;;;17.20;99.90;;;;;;5024405;28;20494;-70